Nearby METAR Reports

 

YSCB - Canberra (civ/Mi, Australia
Distance from station: NNE 21km
Updated: 01/12/2020 10:30
Clear
Clear
 Wind from WSW
Wind: WSW 7 km/h
Temperature: 22°C
Dew Point: 13°C
Humidity: 57%
Barometer: 1012 hPa
Clouds: Clear
Visibility: 10 km
2020/11/30 23:30 YSCB 302330Z AUTO 24004KT 210V280 9999 // NCD 22/13 Q1012
YCOM - Cooma Snowy Mtns, Australia
Distance from station: S 94km
Updated: 01/12/2020 10:00
Clear
Clear
 Wind from NNW
Wind: NNW 24 km/h
Temperature: 27°C
Dew Point: 8°C
Humidity: 30%
Barometer: 1011 hPa
Clouds: Clear
Visibility: 10 km
2020/11/30 23:00 YCOM 302300Z AUTO 33013KT 320V020 9999 // NCD 27/08 Q1011
 
YSNW - Nowra (aus-Navy), Australia
Distance from station: ENE 140km
Updated: 01/12/2020 10:00
Clear
Clear
 Wind from N
Wind: N 17 km/h
Temperature: 24°C
Dew Point: 15°C
Humidity: 57%
Barometer: 1010 hPa
Summary: Clear
Visibility: greater than 10 km
2020/11/30 23:00 YSNW 302300Z 01009KT CAVOK 24/15 Q1010
YSWG - Wagga Wagga(Cv/M, Australia
Distance from station: WNW 153km
Updated: 01/12/2020 10:00
Clear
Clear
 Wind from ENE
Wind: ENE 19 km/h
Temperature: 27°C
Heat Index: 27°C
Dew Point: 14°C
Humidity: 45%
Barometer: 1008 hPa
Summary: Clear
Visibility: greater than 10 km
2020/11/30 23:00 YSWG 302300Z 07010KT CAVOK 27/14 Q1008
 
YMER - Merimbula Arpt, Australia
Distance from station: SSE 177km
Updated: 01/12/2020 10:00
Clear
Clear
 Wind from NE
Wind: NE 19 km/h
Temperature: 23°C
Dew Point: 17°C
Humidity: 69%
Barometer: 1007 hPa
Clouds: Clear
Visibility: 10 km
2020/11/30 23:00 YMER 302300Z AUTO 05010KT 9999 // NCD 23/17 Q1007
YMAY - Albury Airport, Australia
Distance from station: WSW 207km
Updated: 01/12/2020 10:00
Clear
Clear
 Wind from NE
Wind: NE 15 km/h
Temperature: 29°C
Heat Index: 28°C
Dew Point: 14°C
Humidity: 40%
Barometer: 1007 hPa
Clouds: Clear
Visibility: 10 km
2020/11/30 23:00 YMAY 302300Z AUTO 05008KT 010V070 9999 // NCD 29/14 Q1007
 
YNAR - Narrandera, Australia
Distance from station: WNW 250km
Updated: 01/12/2020 10:15
Partly cloudy
Partly cloudy
 Wind from NNE
Wind: NNE 28 km/h
Temperature: 31°C
Dew Point: 12°C
Humidity: 31%
Barometer: 1005 hPa
Clouds: Partly cloudy
Visibility: 10 km
Cloud details: Partly cloudy 2682 m
2020/11/30 23:15 YNAR 302315Z AUTO 03015KT 9999 // SCT088 31/12 Q1005
YSSY - Sydney Intl Airp, Australia
Distance from station: NE 253km
Updated: 01/12/2020 10:30
Mostly cloudy
Mostly cloudy
 Wind from NE
Wind: NE 24 km/h
Temperature: 24°C
Dew Point: 17°C
Humidity: 65%
Barometer: 1012 hPa
Clouds: Mostly cloudy
Visibility: 10 km
Cloud details: Few Clouds 610 m
Mostly cloudy 671 m
2020/11/30 23:30 YSSY 302330Z 04013KT 9999 FEW020 BKN022 24/17 Q1012
 
YSRI - Richmond (aus-Af, Australia
Distance from station: NE 257km
Updated: 01/12/2020 10:30
Clear
Clear
 Wind from ENE
Wind: ENE 13 km/h
Temperature: 24°C
Dew Point: 17°C
Humidity: 65%
Barometer: 1012 hPa
Clouds: Clear
Visibility: 10 km
2020/11/30 23:30 YSRI 302330Z AUTO 06007KT 9999 // NCD 24/17 Q1012 RF00.0/000.0
YWGT - Wangaratta Arp, Australia
Distance from station: WSW 274km
Updated: 01/12/2020 10:00
Clear
Clear
 Wind from N
Wind: N 20 km/h
Temperature: 27°C
Dew Point: 11°C
Humidity: 37%
Barometer: 1007 hPa
Clouds: Clear
2020/11/30 23:00 YWGT 302300Z AUTO 01011KT //// // NCD 27/11 Q1007
 
YGTH - Griffith Arpt, Australia
Distance from station: WNW 308km
Updated: 01/12/2020 10:34
Clear
Clear
 Wind from N
Wind: N 31 km/h, Gust: 50 km/h
Temperature: 36°C
Dew Point: 13°C
Humidity: 25%
Barometer: 1004 hPa
Clouds: Clear
Visibility: 10 km
2020/11/30 23:34 YGTH 302334Z AUTO 36017G27KT 9999 // NCD 36/13 Q1004